sensor_id;sensor_type;location;lat;lon;timestamp;temperature;humidity
19864;DHT22;10094;48.820;9.226;2023-07-29T00:06:38;18.40;99.90
19864;DHT22;10094;48.820;9.226;2023-07-29T00:13:21;18.50;99.90
19864;DHT22;10094;48.820;9.226;2023-07-29T00:20:05;18.50;99.90
19864;DHT22;10094;48.820;9.226;2023-07-29T00:26:50;18.50;99.90
19864;DHT22;10094;48.820;9.226;2023-07-29T00:33:40;18.30;99.90
19864;DHT22;10094;48.820;9.226;2023-07-29T00:40:23;18.40;99.90
19864;DHT22;10094;48.820;9.226;2023-07-29T00:47:06;18.30;99.90
19864;DHT22;10094;48.820;9.226;2023-07-29T00:53:49;18.40;99.90
19864;DHT22;10094;48.820;9.226;2023-07-29T01:00:32;18.40;99.90
19864;DHT22;10094;48.820;9.226;2023-07-29T01:07:23;18.40;99.90
19864;DHT22;10094;48.820;9.226;2023-07-29T01:21:08;18.50;99.90
19864;DHT22;10094;48.820;9.226;2023-07-29T01:27:52;18.50;99.90
19864;DHT22;10094;48.820;9.226;2023-07-29T01:35:21;18.70;99.90
19864;DHT22;10094;48.820;9.226;2023-07-29T01:42:06;18.70;99.90
19864;DHT22;10094;48.820;9.226;2023-07-29T01:48:49;18.60;99.90
19864;DHT22;10094;48.820;9.226;2023-07-29T01:55:32;18.50;99.90
19864;DHT22;10094;48.820;9.226;2023-07-29T02:02:15;18.40;99.90
19864;DHT22;10094;48.820;9.226;2023-07-29T02:08:57;18.50;99.90
19864;DHT22;10094;48.820;9.226;2023-07-29T02:15:40;18.50;99.90
19864;DHT22;10094;48.820;9.226;2023-07-29T02:22:25;18.40;99.90
19864;DHT22;10094;48.820;9.226;2023-07-29T02:29:08;18.40;99.90
19864;DHT22;10094;48.820;9.226;2023-07-29T02:35:50;18.50;99.90
19864;DHT22;10094;48.820;9.226;2023-07-29T02:42:33;18.40;99.90
19864;DHT22;10094;48.820;9.226;2023-07-29T02:49:16;18.50;99.90
19864;DHT22;10094;48.820;9.226;2023-07-29T02:55:58;18.50;99.90
19864;DHT22;10094;48.820;9.226;2023-07-29T03:02:41;18.50;99.90
19864;DHT22;10094;48.820;9.226;2023-07-29T03:09:24;18.40;99.90
19864;DHT22;10094;48.820;9.226;2023-07-29T03:16:11;18.30;99.90
19864;DHT22;10094;48.820;9.226;2023-07-29T03:22:54;18.30;99.90
19864;DHT22;10094;48.820;9.226;2023-07-29T03:29:37;18.20;99.90
19864;DHT22;10094;48.820;9.226;2023-07-29T03:36:21;18.10;99.90
19864;DHT22;10094;48.820;9.226;2023-07-29T03:43:04;18.20;99.90
19864;DHT22;10094;48.820;9.226;2023-07-29T03:49:46;18.20;99.90
19864;DHT22;10094;48.820;9.226;2023-07-29T03:56:31;18.30;99.90
19864;DHT22;10094;48.820;9.226;2023-07-29T04:03:14;18.50;99.90
19864;DHT22;10094;48.820;9.226;2023-07-29T04:09:57;18.60;99.90
19864;DHT22;10094;48.820;9.226;2023-07-29T04:16:40;18.60;99.90
19864;DHT22;10094;48.820;9.226;2023-07-29T04:23:22;18.50;99.90
19864;DHT22;10094;48.820;9.226;2023-07-29T04:30:06;18.30;99.90
19864;DHT22;10094;48.820;9.226;2023-07-29T04:36:49;18.30;99.90
19864;DHT22;10094;48.820;9.226;2023-07-29T04:43:31;18.40;99.90
19864;DHT22;10094;48.820;9.226;2023-07-29T04:50:14;18.40;99.90
19864;DHT22;10094;48.820;9.226;2023-07-29T04:56:57;18.40;99.90
19864;DHT22;10094;48.820;9.226;2023-07-29T05:03:39;18.50;99.90
19864;DHT22;10094;48.820;9.226;2023-07-29T05:10:23;18.50;99.90
19864;DHT22;10094;48.820;9.226;2023-07-29T05:17:05;18.50;99.90
19864;DHT22;10094;48.820;9.226;2023-07-29T05:23:48;18.50;99.90
19864;DHT22;10094;48.820;9.226;2023-07-29T05:30:32;18.70;99.90
19864;DHT22;10094;48.820;9.226;2023-07-29T05:37:16;18.90;99.90
19864;DHT22;10094;48.820;9.226;2023-07-29T05:43:58;18.90;99.90
19864;DHT22;10094;48.820;9.226;2023-07-29T05:50:41;18.90;99.90
19864;DHT22;10094;48.820;9.226;2023-07-29T05:57:24;19.30;99.90
19864;DHT22;10094;48.820;9.226;2023-07-29T06:04:06;20.10;99.90
19864;DHT22;10094;48.820;9.226;2023-07-29T06:10:49;21.30;99.90
19864;DHT22;10094;48.820;9.226;2023-07-29T06:17:32;22.20;99.90
19864;DHT22;10094;48.820;9.226;2023-07-29T06:24:15;23.50;99.90
19864;DHT22;10094;48.820;9.226;2023-07-29T06:30:57;22.80;99.90
19864;DHT22;10094;48.820;9.226;2023-07-29T06:37:40;21.90;99.90
19864;DHT22;10094;48.820;9.226;2023-07-29T06:44:23;21.40;99.90
19864;DHT22;10094;48.820;9.226;2023-07-29T06:51:05;21.30;99.90
19864;DHT22;10094;48.820;9.226;2023-07-29T06:57:48;20.80;99.90
19864;DHT22;10094;48.820;9.226;2023-07-29T07:04:31;20.50;99.90
19864;DHT22;10094;48.820;9.226;2023-07-29T07:11:13;20.20;99.90
19864;DHT22;10094;48.820;9.226;2023-07-29T07:17:56;20.00;99.90
19864;DHT22;10094;48.820;9.226;2023-07-29T07:24:38;19.80;99.90
19864;DHT22;10094;48.820;9.226;2023-07-29T07:31:22;19.80;99.90
19864;DHT22;10094;48.820;9.226;2023-07-29T07:38:05;20.00;99.90
19864;DHT22;10094;48.820;9.226;2023-07-29T07:44:49;20.40;99.90
19864;DHT22;10094;48.820;9.226;2023-07-29T07:51:32;20.90;99.90
19864;DHT22;10094;48.820;9.226;2023-07-29T07:58:15;21.30;99.90
19864;DHT22;10094;48.820;9.226;2023-07-29T08:04:57;21.40;99.90
19864;DHT22;10094;48.820;9.226;2023-07-29T08:11:40;21.60;99.90
19864;DHT22;10094;48.820;9.226;2023-07-29T08:18:23;22.50;99.90
19864;DHT22;10094;48.820;9.226;2023-07-29T08:25:06;22.20;99.90
19864;DHT22;10094;48.820;9.226;2023-07-29T08:31:48;23.90;99.90
19864;DHT22;10094;48.820;9.226;2023-07-29T08:38:33;24.10;99.90
19864;DHT22;10094;48.820;9.226;2023-07-29T08:45:17;23.90;99.90
19864;DHT22;10094;48.820;9.226;2023-07-29T08:52:01;24.70;99.90
19864;DHT22;10094;48.820;9.226;2023-07-29T08:58:44;25.30;99.90
19864;DHT22;10094;48.820;9.226;2023-07-29T09:05:26;27.60;99.90
19864;DHT22;10094;48.820;9.226;2023-07-29T09:12:09;29.50;99.90
19864;DHT22;10094;48.820;9.226;2023-07-29T09:18:53;30.40;99.90
19864;DHT22;10094;48.820;9.226;2023-07-29T09:25:38;28.80;99.90
19864;DHT22;10094;48.820;9.226;2023-07-29T09:32:22;29.90;99.90
19864;DHT22;10094;48.820;9.226;2023-07-29T09:39:11;31.80;99.00
19864;DHT22;10094;48.820;9.226;2023-07-29T09:45:54;31.60;97.70
19864;DHT22;10094;48.820;9.226;2023-07-29T09:52:37;31.20;97.80
19864;DHT22;10094;48.820;9.226;2023-07-29T09:59:20;29.90;99.90
19864;DHT22;10094;48.820;9.226;2023-07-29T10:06:06;29.60;99.90
19864;DHT22;10094;48.820;9.226;2023-07-29T10:12:50;30.50;99.90
19864;DHT22;10094;48.820;9.226;2023-07-29T10:19:34;30.70;99.30
19864;DHT22;10094;48.820;9.226;2023-07-29T10:26:19;31.60;97.40
19864;DHT22;10094;48.820;9.226;2023-07-29T10:33:04;29.20;99.90
19864;DHT22;10094;48.820;9.226;2023-07-29T10:39:55;26.90;99.90
19864;DHT22;10094;48.820;9.226;2023-07-29T10:46:38;26.00;99.90
19864;DHT22;10094;48.820;9.226;2023-07-29T10:53:29;26.50;99.90
19864;DHT22;10094;48.820;9.226;2023-07-29T11:00:16;27.30;99.90
19864;DHT22;10094;48.820;9.226;2023-07-29T11:07:30;28.00;99.90
19864;DHT22;10094;48.820;9.226;2023-07-29T11:14:13;28.40;99.90
19864;DHT22;10094;48.820;9.226;2023-07-29T11:20:57;29.00;99.90
19864;DHT22;10094;48.820;9.226;2023-07-29T11:27:40;29.10;99.90
19864;DHT22;10094;48.820;9.226;2023-07-29T11:34:32;29.30;99.90
19864;DHT22;10094;48.820;9.226;2023-07-29T11:41:19;28.90;99.90
19864;DHT22;10094;48.820;9.226;2023-07-29T11:48:03;29.10;99.90
19864;DHT22;10094;48.820;9.226;2023-07-29T11:54:49;29.30;99.90
19864;DHT22;10094;48.820;9.226;2023-07-29T12:01:32;29.00;99.50
19864;DHT22;10094;48.820;9.226;2023-07-29T12:08:15;29.20;98.60
19864;DHT22;10094;48.820;9.226;2023-07-29T12:14:58;29.20;98.30
19864;DHT22;10094;48.820;9.226;2023-07-29T12:21:41;29.10;99.80
19864;DHT22;10094;48.820;9.226;2023-07-29T12:28:25;28.90;99.80
19864;DHT22;10094;48.820;9.226;2023-07-29T12:35:10;28.80;99.20
19864;DHT22;10094;48.820;9.226;2023-07-29T12:42:00;29.00;98.90
19864;DHT22;10094;48.820;9.226;2023-07-29T12:48:43;29.40;93.80
19864;DHT22;10094;48.820;9.226;2023-07-29T12:55:25;29.50;92.60
19864;DHT22;10094;48.820;9.226;2023-07-29T13:02:08;29.60;91.20
19864;DHT22;10094;48.820;9.226;2023-07-29T13:08:51;29.20;91.10
19864;DHT22;10094;48.820;9.226;2023-07-29T13:15:34;29.00;91.90
19864;DHT22;10094;48.820;9.226;2023-07-29T13:22:17;28.90;92.10
19864;DHT22;10094;48.820;9.226;2023-07-29T13:29:00;29.40;91.40
19864;DHT22;10094;48.820;9.226;2023-07-29T13:35:43;28.90;92.30
19864;DHT22;10094;48.820;9.226;2023-07-29T13:42:25;29.10;91.70
19864;DHT22;10094;48.820;9.226;2023-07-29T13:49:08;28.80;92.10
19864;DHT22;10094;48.820;9.226;2023-07-29T13:55:51;29.20;91.70
19864;DHT22;10094;48.820;9.226;2023-07-29T14:02:33;29.50;91.30
19864;DHT22;10094;48.820;9.226;2023-07-29T14:09:16;29.60;91.00
19864;DHT22;10094;48.820;9.226;2023-07-29T14:16:01;29.50;91.10
19864;DHT22;10094;48.820;9.226;2023-07-29T14:22:47;29.60;90.90
19864;DHT22;10094;48.820;9.226;2023-07-29T14:29:30;29.90;91.20
19864;DHT22;10094;48.820;9.226;2023-07-29T14:36:13;29.60;91.80
19864;DHT22;10094;48.820;9.226;2023-07-29T14:42:55;29.30;92.10
19864;DHT22;10094;48.820;9.226;2023-07-29T14:49:38;29.10;92.80
19864;DHT22;10094;48.820;9.226;2023-07-29T14:56:20;28.90;93.80
19864;DHT22;10094;48.820;9.226;2023-07-29T15:03:05;28.90;93.30
19864;DHT22;10094;48.820;9.226;2023-07-29T15:09:50;28.50;94.30
19864;DHT22;10094;48.820;9.226;2023-07-29T15:16:33;28.30;94.70
19864;DHT22;10094;48.820;9.226;2023-07-29T15:23:20;28.60;94.30
19864;DHT22;10094;48.820;9.226;2023-07-29T15:30:03;28.80;94.30
19864;DHT22;10094;48.820;9.226;2023-07-29T15:36:46;28.60;94.60
19864;DHT22;10094;48.820;9.226;2023-07-29T15:43:28;28.60;94.70
19864;DHT22;10094;48.820;9.226;2023-07-29T15:50:11;28.60;94.20
19864;DHT22;10094;48.820;9.226;2023-07-29T15:56:53;28.90;94.90
19864;DHT22;10094;48.820;9.226;2023-07-29T16:03:36;28.80;94.60
19864;DHT22;10094;48.820;9.226;2023-07-29T16:10:19;28.50;94.70
19864;DHT22;10094;48.820;9.226;2023-07-29T16:17:02;28.20;96.40
19864;DHT22;10094;48.820;9.226;2023-07-29T16:23:44;28.10;96.00
19864;DHT22;10094;48.820;9.226;2023-07-29T16:30:27;28.50;94.90
19864;DHT22;10094;48.820;9.226;2023-07-29T16:37:10;28.40;95.20
19864;DHT22;10094;48.820;9.226;2023-07-29T16:43:53;28.10;95.70
19864;DHT22;10094;48.820;9.226;2023-07-29T16:50:36;27.90;95.40
19864;DHT22;10094;48.820;9.226;2023-07-29T16:57:19;28.00;95.00
19864;DHT22;10094;48.820;9.226;2023-07-29T17:04:02;27.70;94.80
19864;DHT22;10094;48.820;9.226;2023-07-29T17:10:45;27.30;95.20
19864;DHT22;10094;48.820;9.226;2023-07-29T17:17:27;27.10;95.70
19864;DHT22;10094;48.820;9.226;2023-07-29T17:24:10;26.90;96.00
19864;DHT22;10094;48.820;9.226;2023-07-29T17:30:52;26.90;96.60
19864;DHT22;10094;48.820;9.226;2023-07-29T17:37:35;26.70;97.20
19864;DHT22;10094;48.820;9.226;2023-07-29T17:44:18;26.40;98.10
19864;DHT22;10094;48.820;9.226;2023-07-29T17:51:00;25.30;99.90
19864;DHT22;10094;48.820;9.226;2023-07-29T17:57:43;24.40;99.90
19864;DHT22;10094;48.820;9.226;2023-07-29T18:04:26;24.20;99.90
19864;DHT22;10094;48.820;9.226;2023-07-29T18:11:11;24.20;99.90
19864;DHT22;10094;48.820;9.226;2023-07-29T18:17:58;23.80;99.90
19864;DHT22;10094;48.820;9.226;2023-07-29T18:24:41;23.60;99.90
19864;DHT22;10094;48.820;9.226;2023-07-29T18:31:24;23.80;99.90
19864;DHT22;10094;48.820;9.226;2023-07-29T18:38:07;23.90;99.90
19864;DHT22;10094;48.820;9.226;2023-07-29T18:44:49;23.60;99.90
19864;DHT22;10094;48.820;9.226;2023-07-29T18:51:32;23.50;99.90
19864;DHT22;10094;48.820;9.226;2023-07-29T18:58:17;23.40;99.90
19864;DHT22;10094;48.820;9.226;2023-07-29T19:04:59;23.20;99.90
19864;DHT22;10094;48.820;9.226;2023-07-29T19:11:42;22.90;99.90
19864;DHT22;10094;48.820;9.226;2023-07-29T19:18:25;22.80;99.90
19864;DHT22;10094;48.820;9.226;2023-07-29T19:25:08;22.70;99.90
19864;DHT22;10094;48.820;9.226;2023-07-29T19:31:51;22.70;99.90
19864;DHT22;10094;48.820;9.226;2023-07-29T19:38:34;22.70;99.90
19864;DHT22;10094;48.820;9.226;2023-07-29T19:45:17;22.60;99.90
19864;DHT22;10094;48.820;9.226;2023-07-29T19:51:59;22.40;99.90
19864;DHT22;10094;48.820;9.226;2023-07-29T19:58:45;22.30;99.90
19864;DHT22;10094;48.820;9.226;2023-07-29T20:05:27;22.20;99.90
19864;DHT22;10094;48.820;9.226;2023-07-29T20:12:10;22.10;99.90
19864;DHT22;10094;48.820;9.226;2023-07-29T20:18:53;22.00;99.90
19864;DHT22;10094;48.820;9.226;2023-07-29T20:25:36;22.00;99.90
19864;DHT22;10094;48.820;9.226;2023-07-29T20:32:18;21.80;99.90
19864;DHT22;10094;48.820;9.226;2023-07-29T20:39:01;21.70;99.90
19864;DHT22;10094;48.820;9.226;2023-07-29T20:45:46;21.60;99.90
19864;DHT22;10094;48.820;9.226;2023-07-29T20:52:29;21.50;99.90
19864;DHT22;10094;48.820;9.226;2023-07-29T20:59:12;21.70;99.90
19864;DHT22;10094;48.820;9.226;2023-07-29T21:05:54;21.70;99.90
19864;DHT22;10094;48.820;9.226;2023-07-29T21:12:37;21.80;99.90
19864;DHT22;10094;48.820;9.226;2023-07-29T21:19:21;21.60;99.90
19864;DHT22;10094;48.820;9.226;2023-07-29T21:26:04;21.60;99.90
19864;DHT22;10094;48.820;9.226;2023-07-29T21:32:47;21.50;99.90
19864;DHT22;10094;48.820;9.226;2023-07-29T21:39:29;21.50;99.90
19864;DHT22;10094;48.820;9.226;2023-07-29T21:46:12;21.50;99.90
19864;DHT22;10094;48.820;9.226;2023-07-29T21:52:55;21.40;99.90
19864;DHT22;10094;48.820;9.226;2023-07-29T21:59:38;21.50;99.90
19864;DHT22;10094;48.820;9.226;2023-07-29T22:06:20;21.60;99.90
19864;DHT22;10094;48.820;9.226;2023-07-29T22:13:03;21.60;99.90
19864;DHT22;10094;48.820;9.226;2023-07-29T22:19:46;21.70;99.90
19864;DHT22;10094;48.820;9.226;2023-07-29T22:26:28;21.70;99.90
19864;DHT22;10094;48.820;9.226;2023-07-29T22:33:12;21.50;99.90
19864;DHT22;10094;48.820;9.226;2023-07-29T22:39:55;21.50;99.90
19864;DHT22;10094;48.820;9.226;2023-07-29T22:46:38;21.60;99.90
19864;DHT22;10094;48.820;9.226;2023-07-29T22:53:21;21.50;99.90
19864;DHT22;10094;48.820;9.226;2023-07-29T23:00:04;21.10;99.90
19864;DHT22;10094;48.820;9.226;2023-07-29T23:06:47;20.90;99.90
19864;DHT22;10094;48.820;9.226;2023-07-29T23:13:30;20.70;99.90
19864;DHT22;10094;48.820;9.226;2023-07-29T23:20:13;20.50;99.90
19864;DHT22;10094;48.820;9.226;2023-07-29T23:26:55;19.70;99.90
19864;DHT22;10094;48.820;9.226;2023-07-29T23:33:38;19.20;99.90
19864;DHT22;10094;48.820;9.226;2023-07-29T23:40:21;19.10;99.90
19864;DHT22;10094;48.820;9.226;2023-07-29T23:47:03;19.10;99.90
19864;DHT22;10094;48.820;9.226;2023-07-29T23:53:46;19.10;99.90
